Time;durP1;ratioP1;P1;durP2;ratioP2;P2;SDS_P1;SDS_P2;PMS_P1;PMS_P2;Temp;Humidity;BMP_temperature;BMP_pressure;BME280_temperature;BME280_humidity;BME280_pressure;Samples;Min_cycle;Max_cycle;Signal;HPM_P1;HPM_P2
2022/06/28 00:00:51;;;;;;;73.38;67.57;;;;;;;19.06;100.00;101162.28;5049421;28;20126;-82
2022/06/28 00:03:59;;;;;;;66.63;61.30;;;;;;;19.06;100.00;101165.78;5044196;28;20114;-81
2022/06/28 00:09:29;;;;;;;63.42;58.33;;;;;;;18.11;100.00;101164.22;5025233;28;20045;-82
2022/06/28 00:12:17;;;;;;;;;;;;;;;;;;;;;
2022/06/28 00:18:32;;;;;;;81.55;75.22;;;;;;;18.79;100.00;101157.69;5039668;28;20048;-83
2022/06/28 00:21:06;;;;;;;90.22;83.68;;;;;;;18.59;100.00;101154.69;5043221;28;20124;-83
2022/06/28 00:24:03;;;;;;;;;;;;;;;;;;;;;
2022/06/28 00:26:50;;;;;;;;;;;;;;;;;;;;;
2022/06/28 00:29:23;;;;;;;83.10;76.43;;;;;;;18.38;100.00;101138.28;5040796;28;20037;-82
2022/06/28 00:32:08;;;;;;;64.93;59.35;;;;;;;18.61;100.00;101131.88;5044453;28;20140;-83
2022/06/28 00:38:32;;;;;;;;;;;;;;;;;;;;;
2022/06/28 00:41:02;;;;;;;77.68;70.97;;;;;;;18.82;100.00;101141.03;5047177;28;20053;-83
2022/06/28 00:44:02;;;;;;;;;;;;;;;;;;;;;
2022/06/28 00:46:59;;;;;;;72.68;67.03;;;;;;;18.57;100.00;101129.91;5041061;28;20052;-82
2022/06/28 00:49:42;;;;;;;77.70;71.72;;;;;;;18.70;100.00;101133.06;5043742;28;20052;-84
2022/06/28 00:52:14;;;;;;;;;;;;;;;18.16;100.00;101129.34;5050804;28;20531;-83
2022/06/28 00:54:44;;;;;;;75.53;69.77;;;;;;;18.00;100.00;101133.66;5046109;28;19927;-84
2022/06/28 00:57:23;;;;;;;;;;;;;;;;;;;;;
2022/06/28 00:59:55;;;;;;;91.50;84.60;;;;;;;17.87;100.00;101137.50;5032118;28;20060;-84
2022/06/28 01:02:56;;;;;;;97.18;89.80;;;;;;;18.28;100.00;101138.13;5041478;28;20061;-82
2022/06/28 01:05:39;;;;;;;83.78;77.18;;;;;;;18.38;100.00;101143.66;4953531;29;20047;-83
2022/06/28 01:08:26;;;;;;;92.15;85.25;;;;;;;18.47;100.00;101139.47;5019149;28;20466;-82
2022/06/28 01:11:18;;;;;;;79.10;72.68;;;;;;;18.44;100.00;101145.34;5005496;28;20048;-84
2022/06/28 01:14:09;;;;;;;;;;;;;;;;;;;;;
2022/06/28 01:19:32;;;;;;;;;;;;;;;;;;;;;
2022/06/28 01:22:30;;;;;;;;;;;;;;;;;;;;;
2022/06/28 01:25:22;;;;;;;94.30;87.07;;;;;;;18.23;100.00;101144.25;5002722;28;20054;-83
2022/06/28 01:27:53;;;;;;;75.40;69.50;;;;;;;17.83;100.00;101141.75;4968287;28;20435;-83
2022/06/28 01:30:36;;;;;;;84.40;77.57;;;;;;;18.39;100.00;101139.09;4957246;28;20086;-82
2022/06/28 01:33:12;;;;;;;77.63;71.63;;;;;;;18.55;100.00;101138.25;4962717;28;20043;-84
2022/06/28 01:35:46;;;;;;;84.28;78.20;;;;;;;18.36;100.00;101136.88;4961197;28;20062;-83
2022/06/28 01:38:19;;;;;;;95.65;88.45;;;;;;;18.50;100.00;101136.28;4968903;28;20051;-84
2022/06/28 01:40:52;;;;;;;96.45;89.57;;;;;;;18.51;100.00;101129.84;4965955;28;20078;-83
2022/06/28 01:43:27;;;;;;;;;;;;;;;18.24;100.00;101142.34;4964509;28;20400;-83
2022/06/28 01:46:12;;;;;;;101.18;94.15;;;;;;;18.39;100.00;101139.88;4958711;28;20473;-83
2022/06/28 01:49:06;;;;;;;79.45;73.68;;;;;;;17.66;100.00;101132.81;4957806;28;20062;-84
2022/06/28 01:51:37;;;;;;;52.78;47.97;;;;;;;18.03;100.00;101139.38;4964363;28;20125;-83
2022/06/28 01:54:17;;;;;;;;;;;;;;;;;;;;;
2022/06/28 01:57:06;;;;;;;54.95;50.05;;;;;;;18.05;100.00;101139.94;4987611;28;20058;-83
2022/06/28 01:59:56;;;;;;;58.72;53.53;;;;;;;18.04;100.00;101149.06;5002095;28;20046;-82
2022/06/28 02:02:22;;;;;;;65.22;59.72;;;;;;;18.00;100.00;101156.00;5133963;22;20061;-82
2022/06/28 02:04:51;;;;;;;64.20;58.45;;;;;;;18.25;100.00;101150.19;5017560;28;20065;-82
2022/06/28 02:07:19;;;;;;;60.78;55.47;;;;;;;17.97;100.00;101142.22;5014047;28;20050;-84
2022/06/28 02:09:47;;;;;;;75.00;68.88;;;;;;;18.06;100.00;101135.38;5014065;28;20076;-84
2022/06/28 02:12:16;;;;;;;72.22;66.03;;;;;;;18.19;100.00;101131.56;5013904;28;20084;-83
2022/06/28 02:14:48;;;;;;;61.58;55.90;;;;;;;18.23;100.00;101135.38;5002583;28;20109;-85
2022/06/28 02:17:16;;;;;;;63.90;58.33;;;;;;;18.30;100.00;101136.81;4995592;28;20050;-83
2022/06/28 02:19:43;;;;;;;65.32;59.72;;;;;;;17.72;100.00;101134.53;5013744;28;20069;-84
2022/06/28 02:22:10;;;;;;;62.90;56.90;;;;;;;17.98;100.00;101139.31;4997744;28;20053;-83
2022/06/28 02:24:40;;;;;;;60.50;54.92;;;;;;;18.38;100.00;101140.97;5013625;28;20046;-83
2022/06/28 02:27:07;;;;;;;55.67;50.80;;;;;;;17.45;100.00;101140.50;5013346;28;20057;-82
2022/06/28 02:29:38;;;;;;;79.95;73.60;;;;;;;17.69;100.00;101143.06;5014961;28;20552;-83
2022/06/28 02:32:06;;;;;;;64.82;59.35;;;;;;;17.75;100.00;101145.59;5017084;28;20124;-84
2022/06/28 02:42:49;;;;;;;65.30;59.90;;;;;;;18.12;100.00;101163.94;5015991;28;20196;-81
2022/06/28 02:45:18;;;;;;;59.45;54.70;;;;;;;18.13;100.00;101160.22;5016598;28;20486;-83
2022/06/28 02:47:46;;;;;;;63.33;58.22;;;;;;;18.01;100.00;101168.38;5016618;28;20061;-83
2022/06/28 02:50:20;;;;;;;56.55;51.65;;;;;;;17.87;100.00;101168.94;5016821;28;20050;-83
2022/06/28 02:52:49;;;;;;;60.08;55.17;;;;;;;18.22;100.00;101171.38;5014184;28;20049;-81
2022/06/28 02:55:16;;;;;;;57.33;52.45;;;;;;;18.26;100.00;101169.81;5016385;28;20137;-82
2022/06/28 02:57:45;;;;;;;56.65;52.15;;;;;;;18.33;100.00;101166.97;5016526;28;20053;-82
2022/06/28 03:00:16;;;;;;;54.88;50.33;;;;;;;18.33;100.00;101166.97;5016501;28;20081;-83
2022/06/28 03:02:47;;;;;;;53.90;49.25;;;;;;;18.28;100.00;101179.28;5017706;28;20196;-83
2022/06/28 03:05:16;;;;;;;55.92;51.33;;;;;;;18.38;100.00;101183.19;5018006;28;20049;-82
2022/06/28 03:07:46;;;;;;;64.50;59.33;;;;;;;18.52;100.00;101182.59;5016799;28;20042;-82
2022/06/28 03:10:15;;;;;;;56.90;52.70;;;;;;;18.30;100.00;101182.50;5016014;28;20057;-83
2022/06/28 03:12:42;;;;;;;59.60;55.08;;;;;;;18.17;100.00;101190.13;5013060;28;20046;-82
2022/06/28 03:15:11;;;;;;;63.50;58.55;;;;;;;18.41;100.00;101183.50;5006966;28;20054;-81
2022/06/28 03:17:40;;;;;;;76.10;70.55;;;;;;;18.28;100.00;101173.91;5019470;28;20064;-82
2022/06/28 03:20:11;;;;;;;61.83;57.22;;;;;;;18.43;100.00;101181.38;5019531;28;20474;-84
2022/06/28 03:22:38;;;;;;;56.30;51.63;;;;;;;18.15;100.00;101176.09;5020787;28;20525;-81
2022/06/28 03:25:07;;;;;;;59.97;55.38;;;;;;;17.69;100.00;101175.31;5019380;28;20045;-81
2022/06/28 03:27:37;;;;;;;59.67;54.97;;;;;;;17.46;100.00;101184.28;5016273;28;20501;-84
2022/06/28 03:30:07;;;;;;;63.20;58.38;;;;;;;17.66;100.00;101181.16;5015997;28;20489;-84
2022/06/28 03:32:34;;;;;;;60.38;55.80;;;;;;;18.13;100.00;101186.28;5022200;28;20046;-83
2022/06/28 03:35:01;;;;;;;61.17;56.40;;;;;;;18.35;100.00;101186.34;5023196;28;20050;-83
2022/06/28 03:37:30;;;;;;;56.45;51.92;;;;;;;18.26;100.00;101181.38;5015026;28;20133;-82
2022/06/28 03:39:56;;;;;;;54.53;50.33;;;;;;;18.35;100.00;101180.97;5019488;28;20056;-82
2022/06/28 03:42:24;;;;;;;53.95;49.65;;;;;;;17.68;100.00;101181.75;5015026;28;20054;-83
2022/06/28 03:44:51;;;;;;;61.70;57.20;;;;;;;18.26;100.00;101184.06;5015441;28;20045;-83
2022/06/28 03:47:18;;;;;;;60.00;55.30;;;;;;;18.51;100.00;101188.19;5017477;28;20423;-83
2022/06/28 03:49:47;;;;;;;57.95;53.35;;;;;;;18.78;100.00;101185.63;5015474;28;20119;-84
2022/06/28 03:52:14;;;;;;;58.97;54.38;;;;;;;18.94;100.00;101187.47;5021891;28;20074;-83
2022/06/28 03:54:43;;;;;;;57.55;53.25;;;;;;;18.82;100.00;101188.66;5015466;28;20112;-84
2022/06/28 03:57:11;;;;;;;59.40;54.80;;;;;;;18.75;100.00;101186.94;5019575;28;20486;-84
2022/06/28 03:59:38;;;;;;;62.85;58.00;;;;;;;18.92;100.00;101184.22;5023247;28;20053;-83
2022/06/28 04:02:05;;;;;;;56.17;51.70;;;;;;;18.97;100.00;101178.06;5009054;28;20080;-84
2022/06/28 04:04:32;;;;;;;55.03;50.67;;;;;;;18.85;100.00;101177.38;5017367;28;20103;-82
2022/06/28 04:06:59;;;;;;;64.13;58.22;;;;;;;18.94;100.00;101181.25;5014665;28;20045;-85
2022/06/28 04:09:26;;;;;;;57.25;52.85;;;;;;;19.03;100.00;101179.75;5010385;28;20050;-84
2022/06/28 04:11:55;;;;;;;55.08;50.63;;;;;;;18.92;100.00;101178.03;5005342;28;20041;-82
2022/06/28 04:14:22;;;;;;;55.08;50.58;;;;;;;18.53;100.00;101173.44;5012285;28;20049;-82
2022/06/28 04:16:49;;;;;;;54.33;49.95;;;;;;;18.33;100.00;101177.72;5009268;28;20050;-83
2022/06/28 04:19:16;;;;;;;58.05;53.35;;;;;;;18.47;100.00;101184.38;5012757;28;20402;-85
2022/06/28 04:21:43;;;;;;;66.57;61.45;;;;;;;18.71;100.00;101175.03;5009753;28;20050;-82
2022/06/28 04:24:11;;;;;;;62.33;57.40;;;;;;;18.14;100.00;101171.78;5013384;28;20054;-82
2022/06/28 04:26:39;;;;;;;58.90;53.92;;;;;;;18.97;100.00;101178.06;5008901;28;20057;-82
2022/06/28 04:29:10;;;;;;;60.83;56.03;;;;;;;19.33;100.00;101176.59;5011498;28;20408;-86
2022/06/28 04:31:36;;;;;;;55.67;51.10;;;;;;;19.33;100.00;101175.78;5009662;28;20046;-83
2022/06/28 04:34:03;;;;;;;56.65;52.45;;;;;;;19.33;100.00;101178.47;5010743;28;20087;-84
2022/06/28 04:36:30;;;;;;;55.58;51.10;;;;;;;19.54;100.00;101177.63;5015787;28;20132;-83
2022/06/28 04:39:00;;;;;;;52.53;48.53;;;;;;;20.09;100.00;101175.72;5010131;28;20041;-83
2022/06/28 04:41:33;;;;;;;52.35;48.25;;;;;;;19.66;100.00;101174.81;5008991;28;20065;-84
2022/06/28 04:44:00;;;;;;;55.58;50.05;;;;;;;19.84;100.00;101177.13;5010084;28;20050;-83
2022/06/28 04:46:29;;;;;;;53.92;49.55;;;;;;;20.06;100.00;101177.06;5012218;28;20050;-86
2022/06/28 04:48:56;;;;;;;58.08;53.60;;;;;;;20.02;100.00;101177.81;5014337;28;20046;-84
2022/06/28 04:51:23;;;;;;;51.63;47.67;;;;;;;19.98;100.00;101182.91;5012429;28;20058;-83
2022/06/28 04:53:50;;;;;;;51.38;46.95;;;;;;;19.93;100.00;101182.06;5002347;28;20042;-83
2022/06/28 04:56:17;;;;;;;55.92;51.22;;;;;;;20.32;100.00;101182.63;5013848;28;20058;-82
2022/06/28 04:58:44;;;;;;;60.63;55.47;;;;;;;20.39;100.00;101183.19;5017734;28;20081;-83
2022/06/28 05:01:11;;;;;;;59.58;54.15;;;;;;;20.30;100.00;101190.16;5010246;28;20057;-83
2022/06/28 05:03:40;;;;;;;52.17;47.78;;;;;;;20.52;100.00;101193.59;5012354;28;20108;-83
2022/06/28 05:06:07;;;;;;;56.13;51.58;;;;;;;20.01;100.00;101192.38;5011601;28;20061;-82
2022/06/28 05:08:35;;;;;;;52.38;47.95;;;;;;;20.38;100.00;101181.59;5006251;28;20462;-84
2022/06/28 05:11:03;;;;;;;53.13;48.67;;;;;;;20.46;100.00;101186.50;5011635;28;20045;-84
2022/06/28 05:13:30;;;;;;;60.35;55.55;;;;;;;20.53;100.00;101184.41;5009713;28;20049;-83
2022/06/28 05:15:57;;;;;;;57.88;53.28;;;;;;;20.36;100.00;101181.84;5013587;28;20132;-84
2022/06/28 05:18:26;;;;;;;59.75;54.92;;;;;;;20.62;100.00;101183.91;5016381;28;20076;-85
2022/06/28 05:20:56;;;;;;;59.15;54.50;;;;;;;20.70;100.00;101186.13;5010059;28;20049;-83
2022/06/28 05:23:24;;;;;;;57.25;52.22;;;;;;;20.40;100.00;101190.25;5005034;28;20482;-83
2022/06/28 05:25:51;;;;;;;63.58;58.30;;;;;;;20.78;100.00;101199.09;5007769;28;20375;-83
2022/06/28 05:28:18;;;;;;;67.25;61.40;;;;;;;21.20;100.00;101190.91;5015996;28;20203;-83
2022/06/28 05:30:45;;;;;;;61.05;55.33;;;;;;;21.43;100.00;101192.38;5009770;28;20048;-85
2022/06/28 05:33:12;;;;;;;56.70;51.85;;;;;;;21.52;100.00;101189.97;5008579;28;20050;-85
2022/06/28 05:35:39;;;;;;;52.03;47.17;;;;;;;21.69;100.00;101200.50;5008087;28;20046;-82
2022/06/28 05:38:08;;;;;;;54.05;49.17;;;;;;;21.93;100.00;101200.78;5007068;28;20062;-83
2022/06/28 05:40:35;;;;;;;56.72;52.00;;;;;;;21.99;100.00;101212.44;5011853;28;20112;-83
2022/06/28 05:43:02;;;;;;;54.88;49.88;;;;;;;21.94;100.00;101197.03;5005719;28;20062;-82
2022/06/28 05:45:30;;;;;;;54.20;49.28;;;;;;;22.13;100.00;101205.41;5009225;28;20397;-82
2022/06/28 05:47:59;;;;;;;54.83;50.50;;;;;;;22.29;100.00;101206.22;5011849;28;20053;-83
2022/06/28 05:50:26;;;;;;;51.03;46.53;;;;;;;22.47;100.00;101199.44;5012643;28;20053;-87
2022/06/28 05:52:53;;;;;;;52.95;47.90;;;;;;;22.64;100.00;101211.59;5006948;28;20050;-86
2022/06/28 05:55:21;;;;;;;61.28;56.72;;;;;;;22.83;100.00;101206.38;5008807;28;20060;-83
2022/06/28 05:57:49;;;;;;;49.65;45.72;;;;;;;22.82;100.00;101207.47;5013043;28;20053;-82
2022/06/28 06:00:18;;;;;;;49.20;44.88;;;;;;;23.02;100.00;101209.31;5008123;28;20046;-84
2022/06/28 06:02:45;;;;;;;52.20;47.58;;;;;;;23.21;100.00;101203.28;5014064;28;20053;-85
2022/06/28 06:05:12;;;;;;;52.88;48.80;;;;;;;23.24;100.00;101200.03;5024033;28;20045;-85
2022/06/28 06:07:45;;;;;;;55.30;50.90;;;;;;;23.47;100.00;101204.75;5009849;28;20142;-83
2022/06/28 06:10:18;;;;;;;53.35;49.22;;;;;;;23.65;100.00;101207.88;5014639;28;20116;-88
2022/06/28 06:12:47;;;;;;;49.28;45.58;;;;;;;23.80;100.00;101196.16;5015394;28;20042;-86
2022/06/28 06:15:14;;;;;;;48.35;44.58;;;;;;;23.80;100.00;101202.38;5014007;28;20050;-85
2022/06/28 06:17:41;;;;;;;46.90;43.50;;;;;;;24.11;100.00;101204.84;5021896;28;20049;-84
2022/06/28 06:20:15;;;;;;;44.58;41.30;;;;;;;24.21;100.00;101202.06;5024331;28;20046;-83
2022/06/28 06:22:42;;;;;;;43.42;39.28;;;;;;;24.24;100.00;101212.34;5015832;28;20054;-80
2022/06/28 06:25:09;;;;;;;41.30;37.65;;;;;;;24.39;100.00;101204.06;5027812;28;20056;-84
2022/06/28 06:27:37;;;;;;;42.85;38.92;;;;;;;24.54;100.00;101205.00;5019898;28;20111;-82
2022/06/28 06:30:06;;;;;;;44.83;40.60;;;;;;;24.86;100.00;101207.91;5014737;28;20050;-83
2022/06/28 06:32:33;;;;;;;40.78;36.88;;;;;;;25.01;100.00;101206.91;5026043;28;20045;-83
2022/06/28 06:35:00;;;;;;;42.65;38.90;;;;;;;24.99;100.00;101206.38;5016325;28;20133;-83
2022/06/28 06:37:28;;;;;;;38.70;35.58;;;;;;;25.09;100.00;101210.91;5012804;28;20053;-81
2022/06/28 06:39:55;;;;;;;39.55;36.33;;;;;;;25.23;100.00;101209.09;5016155;28;20038;-81
2022/06/28 06:42:21;;;;;;;39.63;36.63;;;;;;;25.27;100.00;101212.06;5014790;28;20042;-82
2022/06/28 06:44:48;;;;;;;39.58;36.30;;;;;;;25.48;100.00;101220.72;5016271;28;20127;-82
2022/06/28 06:47:17;;;;;;;37.92;35.22;;;;;;;25.61;100.00;101216.47;5015254;28;20062;-83
2022/06/28 06:49:43;;;;;;;35.88;33.15;;;;;;;25.78;100.00;101217.56;5019866;28;20042;-83
2022/06/28 06:52:11;;;;;;;35.78;32.75;;;;;;;26.00;100.00;101216.94;5012845;28;20058;-83
2022/06/28 06:54:38;;;;;;;36.42;33.53;;;;;;;25.70;100.00;101226.38;5019473;28;20120;-82
2022/06/28 06:57:05;;;;;;;36.72;33.35;;;;;;;25.68;100.00;101217.69;5020038;28;20406;-82
2022/06/28 06:59:32;;;;;;;33.22;30.45;;;;;;;25.74;100.00;101219.22;5014656;28;20046;-81
2022/06/28 07:02:00;;;;;;;29.83;27.77;;;;;;;25.90;100.00;101219.00;5013211;28;20053;-81
2022/06/28 07:04:28;;;;;;;30.17;28.00;;;;;;;25.85;100.00;101216.41;5019127;28;20042;-82
2022/06/28 07:06:55;;;;;;;33.22;31.02;;;;;;;25.92;100.00;101214.09;5007583;28;20446;-83
2022/06/28 07:09:23;;;;;;;29.80;27.90;;;;;;;25.86;100.00;101199.75;5007385;28;20518;-82
2022/06/28 07:11:51;;;;;;;30.30;28.27;;;;;;;25.60;100.00;101210.22;5011608;28;20490;-82
2022/06/28 07:14:18;;;;;;;29.63;27.73;;;;;;;25.64;100.00;101203.06;5012335;28;20046;-82
2022/06/28 07:16:45;;;;;;;29.58;27.30;;;;;;;25.59;100.00;101200.44;5013617;28;20050;-82
2022/06/28 07:19:13;;;;;;;30.08;27.77;;;;;;;25.88;100.00;101196.75;5016425;28;20092;-83
2022/06/28 07:21:42;;;;;;;28.48;26.48;;;;;;;25.91;100.00;101199.69;5020586;28;20136;-82
2022/06/28 07:24:09;;;;;;;26.90;25.13;;;;;;;25.78;100.00;101197.69;5015982;28;20061;-82
2022/06/28 07:26:36;;;;;;;29.48;27.13;;;;;;;25.81;100.00;101206.09;5014403;28;20046;-81
2022/06/28 07:29:04;;;;;;;29.20;27.15;;;;;;;25.74;100.00;101204.81;5015807;28;20077;-82
2022/06/28 07:31:31;;;;;;;32.67;30.05;;;;;;;25.86;100.00;101207.91;5016789;28;20057;-82
2022/06/28 07:33:58;;;;;;;32.33;30.17;;;;;;;25.84;100.00;101204.72;5018464;28;20073;-81
2022/06/28 07:36:25;;;;;;;33.22;31.00;;;;;;;25.92;100.00;101206.72;5016161;28;20046;-82
2022/06/28 07:38:54;;;;;;;29.92;27.33;;;;;;;25.84;100.00;101210.16;5016555;28;20060;-83
2022/06/28 07:41:21;;;;;;;32.30;29.83;;;;;;;25.85;100.00;101210.97;5009205;28;20046;-81
2022/06/28 07:43:50;;;;;;;30.55;28.25;;;;;;;25.75;100.00;101217.31;5018495;28;20049;-84
2022/06/28 07:46:19;;;;;;;31.63;29.13;;;;;;;25.96;100.00;101215.09;5017598;28;20077;-83
2022/06/28 07:48:46;;;;;;;31.67;29.20;;;;;;;25.86;100.00;101221.53;5019327;28;20438;-82
2022/06/28 07:53:59;;;;;;;32.58;30.00;;;;;;;26.26;100.00;101224.66;5022014;28;20485;-81
2022/06/28 07:56:26;;;;;;;30.85;28.65;;;;;;;26.13;100.00;101228.19;5015900;28;20065;-82
2022/06/28 07:58:52;;;;;;;32.65;30.27;;;;;;;26.30;100.00;101228.44;5018083;28;20045;-82
2022/06/28 08:01:19;;;;;;;33.45;30.95;;;;;;;26.21;100.00;101232.94;5014618;28;20108;-82
2022/06/28 08:03:46;;;;;;;33.85;31.55;;;;;;;26.22;100.00;101232.63;5015347;28;20470;-82
2022/06/28 08:06:13;;;;;;;32.55;30.15;;;;;;;26.43;100.00;101230.34;5013129;28;20060;-82
2022/06/28 08:08:40;;;;;;;34.38;32.17;;;;;;;26.66;100.00;101234.06;5013638;28;20390;-83
2022/06/28 08:11:09;;;;;;;34.33;31.60;;;;;;;26.55;100.00;101238.06;5015521;28;20057;-82
2022/06/28 08:13:37;;;;;;;32.10;29.77;;;;;;;26.73;100.00;101239.09;5016900;28;20061;-81
2022/06/28 08:16:04;;;;;;;31.67;29.33;;;;;;;26.55;100.00;101231.81;5015823;28;20058;-82
2022/06/28 08:18:31;;;;;;;32.55;29.92;;;;;;;26.56;100.00;101227.97;5015971;28;20054;-82
2022/06/28 08:20:58;;;;;;;32.35;30.17;;;;;;;26.46;100.00;101234.41;5016756;28;20046;-81
2022/06/28 08:23:25;;;;;;;32.47;30.13;;;;;;;26.69;100.00;101235.38;5014993;28;20072;-84
2022/06/28 08:25:52;;;;;;;31.50;28.83;;;;;;;26.85;100.00;101230.41;5015649;28;20045;-82
2022/06/28 08:28:20;;;;;;;29.60;27.50;;;;;;;26.25;100.00;101229.31;5010293;28;20060;-82
2022/06/28 08:30:47;;;;;;;28.90;26.70;;;;;;;26.17;100.00;101227.28;5015095;28;20052;-82
2022/06/28 08:33:14;;;;;;;28.55;26.58;;;;;;;26.21;100.00;101230.22;5013176;28;20046;-82
2022/06/28 08:35:41;;;;;;;30.80;28.70;;;;;;;25.99;100.00;101228.94;5014093;28;20045;-81
2022/06/28 08:38:08;;;;;;;31.55;29.40;;;;;;;25.86;100.00;101228.88;5015203;28;20391;-81
2022/06/28 08:40:36;;;;;;;30.42;28.20;;;;;;;26.40;100.00;101221.97;5011952;28;20486;-83
2022/06/28 08:43:07;;;;;;;29.05;26.92;;;;;;;26.52;100.00;101224.25;5013168;28;20045;-82
2022/06/28 08:45:37;;;;;;;29.25;27.27;;;;;;;26.53;100.00;101223.94;5014760;28;20050;-83
2022/06/28 08:48:13;;;;;;;29.15;27.25;;;;;;;26.54;100.00;101224.75;5013823;28;20064;-83
2022/06/28 08:50:42;;;;;;;30.70;28.27;;;;;;;26.75;100.00;101222.44;5013752;28;20049;-82
2022/06/28 08:53:12;;;;;;;30.48;28.55;;;;;;;26.28;100.00;101226.00;5017744;28;20050;-82
2022/06/28 08:55:39;;;;;;;30.10;27.88;;;;;;;26.42;100.00;101231.47;5025089;28;20057;-83
2022/06/28 08:58:08;;;;;;;29.77;27.80;;;;;;;26.14;100.00;101230.59;5016202;28;20061;-81
2022/06/28 09:00:36;;;;;;;29.63;27.40;;;;;;;26.41;100.00;101231.75;5012357;28;20056;-81
2022/06/28 09:03:04;;;;;;;29.42;27.30;;;;;;;26.57;100.00;101232.34;5015941;28;20503;-81
2022/06/28 09:05:31;;;;;;;30.90;28.80;;;;;;;26.66;100.00;101223.16;5016624;28;20042;-81
2022/06/28 09:08:00;;;;;;;34.97;32.45;;;;;;;26.62;100.00;101226.78;5022243;28;20138;-81
2022/06/28 09:10:28;;;;;;;37.45;34.28;;;;;;;26.57;100.00;101227.69;5013344;28;20050;-82
2022/06/28 09:13:05;;;;;;;33.00;30.45;;;;;;;26.53;100.00;101223.13;5014137;28;20057;-82
2022/06/28 09:15:48;;;;;;;34.72;31.85;;;;;;;26.44;100.00;101223.78;5016625;28;20054;-82
2022/06/28 09:18:17;;;;;;;31.95;28.60;;;;;;;26.40;100.00;101221.97;5008974;28;20086;-81
2022/06/28 09:20:45;;;;;;;34.28;30.67;;;;;;;26.36;100.00;101208.16;5014622;28;20398;-83
2022/06/28 09:23:26;;;;;;;37.58;34.40;;;;;;;26.69;100.00;101210.84;5016443;28;20467;-83
2022/06/28 09:25:53;;;;;;;32.45;30.00;;;;;;;26.53;100.00;101213.03;5002473;28;20108;-84
2022/06/28 09:28:27;;;;;;;30.95;28.88;;;;;;;26.41;100.00;101208.06;5014241;28;20050;-84
2022/06/28 09:31:14;;;;;;;34.50;31.90;;;;;;;26.61;100.00;101217.78;5022645;28;20122;-83
2022/06/28 09:33:42;;;;;;;28.75;26.80;;;;;;;26.57;100.00;101207.81;5014914;28;20046;-83
2022/06/28 09:36:15;;;;;;;28.63;26.52;;;;;;;26.19;100.00;101216.09;5020300;28;20387;-81
2022/06/28 09:38:42;;;;;;;29.45;26.38;;;;;;;26.33;100.00;101210.69;5011596;28;20046;-84
2022/06/28 09:41:25;;;;;;;30.80;28.67;;;;;;;26.16;100.00;101203.88;5015229;28;20057;-81
2022/06/28 09:44:00;;;;;;;28.25;26.23;;;;;;;26.20;100.00;101207.63;5011571;28;20133;-81
2022/06/28 09:46:30;;;;;;;31.42;29.08;;;;;;;26.34;100.00;101206.84;5014613;28;20042;-81
2022/06/28 09:48:59;;;;;;;30.48;28.38;;;;;;;26.31;100.00;101208.25;5023023;28;20050;-81
2022/06/28 09:51:29;;;;;;;31.48;29.30;;;;;;;26.17;100.00;101204.69;5032471;28;20057;-81
2022/06/28 09:54:01;;;;;;;33.70;31.00;;;;;;;26.21;100.00;101222.06;5019684;28;20041;-82
2022/06/28 09:56:29;;;;;;;33.83;31.08;;;;;;;26.20;100.00;101223.97;5022958;28;20041;-82
2022/06/28 09:59:02;;;;;;;32.45;30.02;;;;;;;26.26;100.00;101217.34;5018358;28;20042;-82
2022/06/28 10:01:30;;;;;;;33.83;30.58;;;;;;;26.09;100.00;101221.72;5025593;28;20054;-81
2022/06/28 10:03:58;;;;;;;30.52;27.88;;;;;;;26.06;100.00;101227.75;5013812;28;20046;-82
2022/06/28 10:06:25;;;;;;;31.15;28.60;;;;;;;26.14;100.00;101219.69;5013403;28;20046;-82
2022/06/28 10:08:52;;;;;;;30.52;28.20;;;;;;;25.94;100.00;101225.50;5019400;28;20057;-82
2022/06/28 10:11:20;;;;;;;30.85;28.88;;;;;;;25.84;100.00;101222.94;5016223;28;20057;-82
2022/06/28 10:16:58;;;;;;;32.20;29.73;;;;;;;25.59;100.00;101225.72;5005509;28;20053;-81
2022/06/28 10:19:34;;;;;;;34.38;31.80;;;;;;;25.59;100.00;101230.34;5016477;28;20057;-83
2022/06/28 10:22:11;;;;;;;33.17;30.50;;;;;;;25.38;100.00;101229.81;5012583;28;20410;-81
2022/06/28 10:24:55;;;;;;;33.38;30.90;;;;;;;25.36;100.00;101226.59;5013772;28;20050;-81
2022/06/28 10:27:22;;;;;;;35.88;33.50;;;;;;;25.30;100.00;101223.16;5016108;28;20038;-81
2022/06/28 10:30:18;;;;;;;35.42;32.70;;;;;;;25.14;100.00;101224.44;5010055;28;20137;-81
2022/06/28 10:32:48;;;;;;;41.65;38.53;;;;;;;25.12;100.00;101230.13;5010336;28;20054;-83
2022/06/28 10:35:53;;;;;;;44.67;41.42;;;;;;;24.86;100.00;101224.19;5014115;28;20045;-81
2022/06/28 10:38:21;;;;;;;43.40;40.35;;;;;;;24.98;100.00;101217.56;5013009;28;20081;-82
2022/06/28 10:40:49;;;;;;;38.80;36.00;;;;;;;24.66;100.00;101217.09;5012272;28;20054;-81
2022/06/28 10:43:36;;;;;;;46.97;43.58;;;;;;;25.01;100.00;101217.78;5016107;28;20061;-82
2022/06/28 10:46:09;;;;;;;46.70;43.10;;;;;;;24.92;100.00;101209.44;5014425;28;20237;-82
2022/06/28 10:49:03;;;;;;;38.17;35.60;;;;;;;24.71;100.00;101199.94;5011333;28;20077;-81
2022/06/28 10:51:31;;;;;;;50.55;46.83;;;;;;;24.83;100.00;101202.25;5014345;28;20065;-82
2022/06/28 10:54:07;;;;;;;48.28;44.83;;;;;;;24.60;100.00;101201.97;5016148;28;20052;-80
2022/06/28 10:57:00;;;;;;;63.83;59.08;;;;;;;24.86;100.00;101196.22;5009183;28;20133;-86
2022/06/28 10:59:39;;;;;;;55.30;51.03;;;;;;;24.69;100.00;101188.56;5002161;28;20050;-86
2022/06/28 11:02:06;;;;;;;53.30;49.03;;;;;;;24.49;100.00;101202.34;5018123;28;20053;-89
2022/06/28 11:04:35;;;;;;;65.18;59.75;;;;;;;24.66;100.00;101199.97;5021804;28;20053;-86
2022/06/28 11:07:08;;;;;;;91.07;83.63;;;;;;;24.27;100.00;101202.78;5026707;28;20445;-89
2022/06/28 11:09:58;;;;;;;66.43;61.03;;;;;;;24.53;100.00;101187.09;5026665;28;20068;-87
2022/06/28 11:12:38;;;;;;;74.93;68.68;;;;;;;24.31;100.00;101179.44;5024313;28;20045;-86
2022/06/28 11:15:07;;;;;;;71.30;65.53;;;;;;;24.35;100.00;101175.03;5016744;28;20042;-84
2022/06/28 11:17:41;;;;;;;82.05;73.72;;;;;;;24.34;100.00;101176.16;5013814;28;20410;-87
2022/06/28 11:20:14;;;;;;;84.28;77.07;;;;;;;24.22;100.00;101181.97;5011345;28;20054;-86
2022/06/28 11:22:43;;;;;;;69.00;61.58;;;;;;;24.12;100.00;101190.22;5019701;28;20425;-87
2022/06/28 11:25:12;;;;;;;70.70;63.33;;;;;;;24.28;100.00;101185.44;5024004;28;20046;-87
2022/06/28 11:27:47;;;;;;;77.75;70.22;;;;;;;24.00;100.00;101182.44;5020017;28;20057;-88
2022/06/28 11:30:17;;;;;;;76.18;69.57;;;;;;;23.62;100.00;101203.03;5008629;28;20153;-86
2022/06/28 11:32:48;;;;;;;96.93;89.32;;;;;;;23.62;100.00;101208.47;5013012;28;20054;-87
2022/06/28 11:35:18;;;;;;;69.57;64.38;;;;;;;24.05;100.00;101187.78;5028915;28;20030;-87
2022/06/28 11:37:53;;;;;;;65.78;60.20;;;;;;;23.96;100.00;101186.78;5018429;28;20045;-88
2022/06/28 11:40:22;;;;;;;61.08;56.28;;;;;;;24.28;100.00;101182.72;5024311;28;20069;-88
2022/06/28 11:43:01;;;;;;;43.67;40.42;;;;;;;24.12;100.00;101171.22;5020617;28;20065;-89
2022/06/28 11:45:30;;;;;;;49.38;45.17;;;;;;;24.54;100.00;101175.13;5009628;28;20469;-88
2022/06/28 11:48:05;;;;;;;57.22;51.80;;;;;;;24.48;100.00;101170.84;5013937;28;20049;-86
2022/06/28 11:51:02;;;;;;;80.70;74.38;;;;;;;24.68;100.00;101179.59;5010434;28;20039;-90
2022/06/28 11:53:46;;;;;;;64.03;59.17;;;;;;;24.57;100.00;101166.41;5002131;28;20050;-85
2022/06/28 12:03:19;;;;;;;58.30;53.55;;;;;;;25.07;100.00;101156.81;4991029;28;20081;-86
2022/06/28 12:06:07;;;;;;;48.50;44.50;;;;;;;24.99;100.00;101160.19;5009683;28;20042;-86
2022/06/28 12:08:54;;;;;;;45.38;42.10;;;;;;;25.24;100.00;101150.13;5000713;28;20129;-83